KCAO/CAO METAR and TAF weather

Enter ICAO airport designator
Station Type Date Time Source
KCAO METAR 2018/12/13 14:55 UTC NOAA

KCAO 131455Z AUTO 36036G47KT 10SM OVC120 01/M12 A3005 RMK AO2 PK WND 36048/1440 SLP176 T00061117 51033


Station Type Date Time Source
KCAO Decoded METAR 2018/12/13 14:55 UTC NOAA

CLAYTON MUNICIPAL AIRPARK, NM, United States (KCAO) 36-27N 103-09W 1514M
Dec 13, 2018 - 09:55 AM EST / 2018.12.13 1455 UTC
Wind: from the N (360 degrees) at 41 MPH (36 KT) gusting to 54 MPH (47 KT):0
Visibility: 10 mile(s):0
Sky conditions: overcast
Temperature: 33.1 F (0.6 C)
Windchill: 17 F (-8 C):1
Dew Point: 10.9 F (-11.7 C)
Relative Humidity: 39%
Pressure (altimeter): 30.05 in. Hg (1017 hPa)
Pressure tendency: 0.10 inches (3.3 hPa) higher than three hours ago
ob: KCAO 131455Z AUTO 36036G47KT 10SM OVC120 01/M12 A3005 RMK AO2 PK WND 36048/1440 SLP176 T00061117 51033
cycle: 15

Station Type Date Time Source
KCAO TAF UTC NOAA

Error!


Example: see airport list